Johann Schulte — MXQO5 — position and weather

sailwx.info

Track history (hours):
 
Tides and Currents Weather Stations Pressure Air Temp Water Temp Dewpoint Dewpoint Depression Visibility Wind Speed Wind Dir Waves Ship Positions

Johann Schulte

Last reported at 2018-Jan-10 10:25 UTC. Time now 2018-Jan-23 10:04 UTC.
Position N 35°60' E 014°39'.
Warning: this ship's position is 12 days out of date.

Length 155 m; draft 8 m.

Type: Ship (hazmat cat D). MMSI: 234889000.

Date/timePositionNaut miles runAvg speedWind from/ knotsBaromVisibWave heightAir tempDewpointWater temp
2018-Jan-10 10:25N 35°60' E 014°39'1 3.2
2018-Jan-10 10:00N 35°59' E 014°38'1 1.4
2018-Jan-10 09:29N 35°59' E 014°37'1 1.4
2018-Jan-10 09:00N 35°59' E 014°36'1 1.0
2018-Jan-10 08:30N 35°59' E 014°36'1 1.9
2018-Jan-10 07:57N 35°58' E 014°37'1 1.2
2018-Jan-10 07:30N 35°58' E 014°37'1 1.4
2018-Jan-10 07:00N 35°59' E 014°36'1 2.3
2018-Jan-10 06:30N 35°58' E 014°37'3 5.9
2018-Jan-10 06:00N 35°57' E 014°40'  
2018-Jan-07 17:04N 35°52' E 014°52'0 0.0
2018-Jan-07 16:46N 35°52' E 014°52'0 0.0
2018-Jan-07 14:37N 35°52' E 014°52'0 0.0
2018-Jan-07 10:13N 35°52' E 014°52'0 0.0
2018-Jan-07 09:54N 35°52' E 014°52'0 0.0
2018-Jan-07 08:09N 35°52' E 014°52'0 0.0
2018-Jan-07 04:45N 35°52' E 014°52'0 0.0
2018-Jan-07 04:27N 35°52' E 014°52'0 0.0
2018-Jan-07 04:00N 35°52' E 014°52'0 0.0
2018-Jan-07 00:27N 35°52' E 014°52'0 0.0
2018-Jan-06 23:51N 35°52' E 014°52'0 0.0
2018-Jan-06 23:27N 35°52' E 014°52'0 0.0
2018-Jan-06 23:00N 35°52' E 014°52'0 0.0
2018-Jan-06 22:30N 35°52' E 014°52'0 0.0
2018-Jan-06 21:57N 35°52' E 014°52'0 0.0
2018-Jan-06 21:15N 35°52' E 014°52'0 0.0
2018-Jan-06 21:00N 35°52' E 014°52'0 0.0
2018-Jan-06 20:06N 35°52' E 014°52'0 0.1
2018-Jan-06 19:57N 35°52' E 014°52'0 0.0
2018-Jan-06 19:27N 35°52' E 014°52'0 0.0
2018-Jan-06 18:03N 35°52' E 014°52'0 0.0
2018-Jan-06 17:54N 35°52' E 014°52'0 0.0
2018-Jan-06 17:15N 35°52' E 014°52'0 0.0
2018-Jan-06 17:00N 35°52' E 014°52'0 0.0
2018-Jan-06 16:21N 35°52' E 014°52'0 0.0
2018-Jan-06 16:00N 35°52' E 014°52'0 0.0
2018-Jan-06 15:30N 35°52' E 014°52'0 0.0
2018-Jan-06 15:00N 35°52' E 014°52'0 0.0
2018-Jan-06 14:30N 35°52' E 014°52'0 0.1
2018-Jan-06 13:06N 35°52' E 014°52'0 1.1
2018-Jan-06 13:00N 35°52' E 014°52'4 7.4
2018-Jan-06 12:30N 35°53' E 014°48'0 0.1
2018-Jan-06 10:57N 35°53' E 014°48'0 0.0
2018-Jan-06 10:15N 35°53' E 014°48'0 0.0
2018-Jan-06 09:57N 35°53' E 014°48'0 0.0
2018-Jan-06 09:30N 35°53' E 014°48'0 0.0
2018-Jan-06 08:33N 35°53' E 014°48'0 0.0
2018-Jan-06 08:27N 35°53' E 014°48'0 0.0
2018-Jan-06 08:00N 35°53' E 014°48'0 0.0
2018-Jan-06 06:27N 35°53' E 014°48'0 0.0
2018-Jan-06 05:57N 35°53' E 014°48'0 0.0
2018-Jan-06 05:27N 35°53' E 014°48'0 0.1
2018-Jan-06 04:36N 35°53' E 014°48'0 0.0
2018-Jan-06 04:30N 35°53' E 014°48'0 0.0
2018-Jan-06 03:57N 35°53' E 014°48'0 0.0
2018-Jan-06 03:30N 35°53' E 014°48'0 0.0
2018-Jan-06 02:45N 35°53' E 014°48'0 0.1
2018-Jan-06 02:30N 35°53' E 014°48'0 0.0
2018-Jan-06 02:00N 35°53' E 014°48'0 0.1
2018-Jan-06 01:27N 35°53' E 014°48'0 0.0
2018-Jan-06 01:00N 35°53' E 014°48'0 0.0
2018-Jan-06 00:26N 35°53' E 014°48'0 0.1
2018-Jan-05 23:59N 35°53' E 014°48'0 0.0
2018-Jan-05 23:29N 35°53' E 014°48'0 0.0
2018-Jan-05 22:56N 35°53' E 014°48'0 0.0
2018-Jan-05 22:26N 35°53' E 014°48'0 0.1
2018-Jan-05 21:56N 35°53' E 014°48'2 0.3
2018-Jan-05 15:50N 35°52' E 014°50'  
2018-Jan-02 03:37N 35°56' E 015°13'0 1.3
2018-Jan-02 03:22N 35°56' E 015°13'1 1.4
2018-Jan-02 02:59N 35°57' E 015°12'1 1.3
2018-Jan-02 02:29N 35°57' E 015°11'1 1.5
2018-Jan-02 01:45N 35°57' E 015°10'0 1.4
2018-Jan-02 01:30N 35°58' E 015°10'  
Track history (hours):
 
Tides and Currents Weather Stations Pressure Air Temp Water Temp Dewpoint Dewpoint Depression Visibility Wind Speed Wind Dir Waves Ship Positions

Johann Schulte

Last reported at 2018-Jan-10 10:25 UTC. Time now 2018-Jan-23 10:04 UTC.
Position N 35°60' E 014°39'.
Warning: this ship's position is 12 days out of date.

Length 155 m; draft 8 m.

Type: Ship (hazmat cat D). MMSI: 234889000.

Date/timePositionNaut miles runAvg speedWind from/ knotsBaromVisibWave heightAir tempDewpointWater temp
2018-Jan-10 10:25N 35°60' E 014°39'1 3.2
2018-Jan-10 10:00N 35°59' E 014°38'1 1.4
2018-Jan-10 09:29N 35°59' E 014°37'1 1.4
2018-Jan-10 09:00N 35°59' E 014°36'1 1.0
2018-Jan-10 08:30N 35°59' E 014°36'1 1.9
2018-Jan-10 07:57N 35°58' E 014°37'1 1.2
2018-Jan-10 07:30N 35°58' E 014°37'1 1.4
2018-Jan-10 07:00N 35°59' E 014°36'1 2.3
2018-Jan-10 06:30N 35°58' E 014°37'3 5.9
2018-Jan-10 06:00N 35°57' E 014°40'  
2018-Jan-07 17:04N 35°52' E 014°52'0 0.0
2018-Jan-07 16:46N 35°52' E 014°52'0 0.0
2018-Jan-07 14:37N 35°52' E 014°52'0 0.0
2018-Jan-07 10:13N 35°52' E 014°52'0 0.0
2018-Jan-07 09:54N 35°52' E 014°52'0 0.0
2018-Jan-07 08:09N 35°52' E 014°52'0 0.0
2018-Jan-07 04:45N 35°52' E 014°52'0 0.0
2018-Jan-07 04:27N 35°52' E 014°52'0 0.0
2018-Jan-07 04:00N 35°52' E 014°52'0 0.0
2018-Jan-07 00:27N 35°52' E 014°52'0 0.0
2018-Jan-06 23:51N 35°52' E 014°52'0 0.0
2018-Jan-06 23:27N 35°52' E 014°52'0 0.0
2018-Jan-06 23:00N 35°52' E 014°52'0 0.0
2018-Jan-06 22:30N 35°52' E 014°52'0 0.0
2018-Jan-06 21:57N 35°52' E 014°52'0 0.0
2018-Jan-06 21:15N 35°52' E 014°52'0 0.0
2018-Jan-06 21:00N 35°52' E 014°52'0 0.0
2018-Jan-06 20:06N 35°52' E 014°52'0 0.1
2018-Jan-06 19:57N 35°52' E 014°52'0 0.0
2018-Jan-06 19:27N 35°52' E 014°52'0 0.0
2018-Jan-06 18:03N 35°52' E 014°52'0 0.0
2018-Jan-06 17:54N 35°52' E 014°52'0 0.0
2018-Jan-06 17:15N 35°52' E 014°52'0 0.0
2018-Jan-06 17:00N 35°52' E 014°52'0 0.0
2018-Jan-06 16:21N 35°52' E 014°52'0 0.0
2018-Jan-06 16:00N 35°52' E 014°52'0 0.0
2018-Jan-06 15:30N 35°52' E 014°52'0 0.0
2018-Jan-06 15:00N 35°52' E 014°52'0 0.0
2018-Jan-06 14:30N 35°52' E 014°52'0 0.1
2018-Jan-06 13:06N 35°52' E 014°52'0 1.1
2018-Jan-06 13:00N 35°52' E 014°52'4 7.4
2018-Jan-06 12:30N 35°53' E 014°48'0 0.1
2018-Jan-06 10:57N 35°53' E 014°48'0 0.0
2018-Jan-06 10:15N 35°53' E 014°48'0 0.0
2018-Jan-06 09:57N 35°53' E 014°48'0 0.0
2018-Jan-06 09:30N 35°53' E 014°48'0 0.0
2018-Jan-06 08:33N 35°53' E 014°48'0 0.0
2018-Jan-06 08:27N 35°53' E 014°48'0 0.0
2018-Jan-06 08:00N 35°53' E 014°48'0 0.0
2018-Jan-06 06:27N 35°53' E 014°48'0 0.0
2018-Jan-06 05:57N 35°53' E 014°48'0 0.0
2018-Jan-06 05:27N 35°53' E 014°48'0 0.1
2018-Jan-06 04:36N 35°53' E 014°48'0 0.0
2018-Jan-06 04:30N 35°53' E 014°48'0 0.0
2018-Jan-06 03:57N 35°53' E 014°48'0 0.0
2018-Jan-06 03:30N 35°53' E 014°48'0 0.0
2018-Jan-06 02:45N 35°53' E 014°48'0 0.1
2018-Jan-06 02:30N 35°53' E 014°48'0 0.0
2018-Jan-06 02:00N 35°53' E 014°48'0 0.1
2018-Jan-06 01:27N 35°53' E 014°48'0 0.0
2018-Jan-06 01:00N 35°53' E 014°48'0 0.0
2018-Jan-06 00:26N 35°53' E 014°48'0 0.1
2018-Jan-05 23:59N 35°53' E 014°48'0 0.0
2018-Jan-05 23:29N 35°53' E 014°48'0 0.0
2018-Jan-05 22:56N 35°53' E 014°48'0 0.0
2018-Jan-05 22:26N 35°53' E 014°48'0 0.1
2018-Jan-05 21:56N 35°53' E 014°48'2 0.3
2018-Jan-05 15:50N 35°52' E 014°50'  
2018-Jan-02 03:37N 35°56' E 015°13'0 1.3
2018-Jan-02 03:22N 35°56' E 015°13'1 1.4
2018-Jan-02 02:59N 35°57' E 015°12'1 1.3
2018-Jan-02 02:29N 35°57' E 015°11'1 1.5
2018-Jan-02 01:45N 35°57' E 015°10'0 1.4
2018-Jan-02 01:30N 35°58' E 015°10'  

Dump ship's entire track history